createdAt,value
2023-05-06T00:00:56.358Z,99651.00
2023-05-06T00:03:59.598Z,99652.06
2023-05-06T00:07:02.455Z,99655.97
2023-05-06T00:10:06.613Z,99659.50
2023-05-06T00:13:09.386Z,99649.44
2023-05-06T00:16:12.345Z,99656.88
2023-05-06T00:19:15.027Z,99645.66
2023-05-06T00:22:18.098Z,99636.13
2023-05-06T00:25:21.108Z,99639.91
2023-05-06T00:28:24.115Z,99638.69
2023-05-06T00:31:26.893Z,99631.88
2023-05-06T00:34:29.960Z,99637.31
2023-05-06T00:37:32.869Z,99631.06
2023-05-06T00:40:36.347Z,99630.22
2023-05-06T00:43:39.107Z,99641.31
2023-05-06T00:46:42.962Z,99635.16
2023-05-06T00:49:47.509Z,99637.06
2023-05-06T00:52:51.336Z,99624.19
2023-05-06T00:55:54.524Z,99631.75
2023-05-06T00:58:58.039Z,99625.75
2023-05-06T01:02:01.077Z,99611.81
2023-05-06T01:05:04.728Z,99617.59
2023-05-06T01:08:19.028Z,99617.22
2023-05-06T01:11:38.884Z,99621.38
2023-05-06T01:14:50.195Z,99618.88
2023-05-06T01:17:54.778Z,99618.06
2023-05-06T01:20:59.188Z,99626.00
2023-05-06T01:24:03.603Z,99620.56
2023-05-06T01:27:11.831Z,99623.28
2023-05-06T01:30:16.907Z,99603.31
2023-05-06T01:33:29.685Z,99622.41
2023-05-06T01:36:45.597Z,99607.81
2023-05-06T01:39:50.184Z,99617.00
2023-05-06T01:42:53.818Z,99632.56
2023-05-06T01:45:57.814Z,99625.75
2023-05-06T01:49:04.749Z,99632.00
2023-05-06T01:52:07.527Z,99629.03
2023-05-06T01:55:11.004Z,99619.00
2023-05-06T01:58:15.914Z,99620.44
2023-05-06T02:01:19.089Z,99625.63
2023-05-06T02:04:22.776Z,99625.28
2023-05-06T02:07:25.541Z,99611.47
2023-05-06T02:10:28.556Z,99629.53
2023-05-06T02:13:32.135Z,99603.44
2023-05-06T02:16:35.670Z,99622.34
2023-05-06T02:19:38.526Z,99623.88
2023-05-06T02:22:41.559Z,99614.91
2023-05-06T02:25:44.555Z,99611.13
2023-05-06T02:28:48.664Z,99615.38
2023-05-06T02:31:51.772Z,99613.94
2023-05-06T02:34:54.519Z,99619.63
2023-05-06T02:37:59.272Z,99604.28
2023-05-06T02:41:03.733Z,99613.94
2023-05-06T02:44:07.494Z,99617.47
2023-05-06T02:47:10.412Z,99619.28
2023-05-06T02:50:13.371Z,99622.69
2023-05-06T02:53:16.059Z,99614.78
2023-05-06T02:56:18.999Z,99618.91
2023-05-06T02:59:22.178Z,99617.47
2023-05-06T03:02:25.367Z,99611.47
2023-05-06T03:05:28.795Z,99605.91
2023-05-06T03:08:32.136Z,99616.19
2023-05-06T03:11:35.050Z,99625.16
2023-05-06T03:14:38.746Z,99622.81
2023-05-06T03:17:41.526Z,99621.16
2023-05-06T03:20:45.388Z,99624.09
2023-05-06T03:23:48.081Z,99610.66
2023-05-06T03:26:51.984Z,99621.38
2023-05-06T03:29:55.914Z,99627.87
2023-05-06T03:33:02.182Z,99633.19
2023-05-06T03:36:05.854Z,99647.00
2023-05-06T03:39:09.548Z,99645.81
2023-05-06T03:42:13.252Z,99641.91
2023-05-06T03:45:17.128Z,99641.09
2023-05-06T03:48:20.359Z,99641.09
2023-05-06T03:51:24.187Z,99635.84
2023-05-06T03:54:27.157Z,99634.22
2023-05-06T03:57:30.492Z,99648.25
2023-05-06T04:00:33.548Z,99650.03
2023-05-06T04:03:36.876Z,99658.63
2023-05-06T04:06:40.585Z,99645.97
2023-05-06T04:09:44.072Z,99649.34
2023-05-06T04:12:47.353Z,99651.72
2023-05-06T04:15:51.034Z,99635.41
2023-05-06T04:18:55.447Z,99645.03
2023-05-06T04:21:59.107Z,99644.19
2023-05-06T04:25:02.134Z,99639.56
2023-05-06T04:28:05.943Z,99647.53
2023-05-06T04:31:09.121Z,99633.56
2023-05-06T04:34:13.355Z,99649.91
2023-05-06T04:37:16.282Z,99637.66
2023-05-06T04:40:19.630Z,99648.09
2023-05-06T04:43:22.793Z,99649.53
2023-05-06T04:46:27.340Z,99646.94
2023-05-06T04:49:30.823Z,99651.72
2023-05-06T04:52:33.972Z,99654.50
2023-05-06T04:55:37.060Z,99648.56
2023-05-06T04:58:40.401Z,99649.13
2023-05-06T05:01:43.363Z,99639.72
2023-05-06T05:04:46.939Z,99636.34
2023-05-06T05:07:50.326Z,99638.53
2023-05-06T05:10:53.643Z,99643.13
2023-05-06T05:13:58.360Z,99640.84
2023-05-06T05:17:03.099Z,99642.72
2023-05-06T05:20:06.703Z,99638.97
2023-05-06T05:23:10.037Z,99631.19
2023-05-06T05:26:13.477Z,99642.13
2023-05-06T05:29:17.040Z,99643.53
2023-05-06T05:32:21.972Z,99643.22
2023-05-06T05:35:25.220Z,99638.34
2023-05-06T05:38:28.906Z,99640.50
2023-05-06T05:41:32.372Z,99637.19
2023-05-06T05:44:35.558Z,99638.56
2023-05-06T05:47:40.415Z,99649.09
2023-05-06T05:50:43.608Z,99647.28
2023-05-06T05:53:46.715Z,99632.03
2023-05-06T05:56:50.652Z,99642.91
2023-05-06T05:59:53.590Z,99653.03
2023-05-06T06:02:56.651Z,99640.84
2023-05-06T06:05:59.924Z,99642.03
2023-05-06T06:09:04.342Z,99637.63
2023-05-06T06:12:07.412Z,99634.78
2023-05-06T06:15:12.177Z,99636.25
2023-05-06T06:18:16.696Z,99626.75
2023-05-06T06:21:19.541Z,99629.94
2023-05-06T06:24:23.003Z,99636.09
2023-05-06T06:27:25.764Z,99645.47
2023-05-06T06:30:28.949Z,99657.66
2023-05-06T06:33:31.803Z,99648.56
2023-05-06T06:36:35.021Z,99646.38
2023-05-06T06:39:38.146Z,99641.28
2023-05-06T06:42:41.320Z,99644.88
2023-05-06T06:45:47.631Z,99640.38
2023-05-06T06:48:50.731Z,99643.97
2023-05-06T06:51:53.695Z,99638.38
2023-05-06T06:54:56.693Z,99635.41
2023-05-06T06:57:59.362Z,99633.31
2023-05-06T07:01:02.300Z,99634.47
2023-05-06T07:04:07.121Z,99637.78
2023-05-06T07:07:10.413Z,99621.75
2023-05-06T07:10:13.210Z,99631.47
2023-05-06T07:13:16.715Z,99626.03
2023-05-06T07:16:19.540Z,99633.75
2023-05-06T07:19:22.473Z,99633.75
2023-05-06T07:22:25.149Z,99630.31
2023-05-06T07:25:28.150Z,99628.72
2023-05-06T07:28:31.108Z,99636.38
2023-05-06T07:31:34.225Z,99637.81
2023-05-06T07:34:37.044Z,99640.72
2023-05-06T07:37:40.183Z,99646.28
2023-05-06T07:40:42.880Z,99641.53
2023-05-06T07:43:46.181Z,99641.63
2023-05-06T07:46:49.116Z,99636.59
2023-05-06T07:49:52.399Z,99645.25
2023-05-06T07:52:55.102Z,99642.56
2023-05-06T07:56:02.349Z,99639.56
2023-05-06T07:59:06.083Z,99645.94
2023-05-06T08:02:09.119Z,99636.88
2023-05-06T08:05:12.921Z,99636.91
2023-05-06T08:08:15.908Z,99639.25
2023-05-06T08:11:19.431Z,99642.09
2023-05-06T08:14:22.570Z,99640.81
2023-05-06T08:17:25.657Z,99641.84
2023-05-06T08:20:28.359Z,99643.34
2023-05-06T08:23:32.332Z,99645.00
2023-05-06T08:26:34.876Z,99638.22
2023-05-06T08:29:38.412Z,99639.25
2023-05-06T08:32:41.223Z,99641.75
2023-05-06T08:35:45.086Z,99647.75
2023-05-06T08:38:50.702Z,99645.47
2023-05-06T08:41:55.971Z,99652.78
2023-05-06T08:44:59.811Z,99656.06
2023-05-06T08:48:02.944Z,99639.31
2023-05-06T08:51:06.008Z,99646.78
2023-05-06T08:54:10.834Z,99639.66
2023-05-06T08:57:14.626Z,99629.34
2023-05-06T09:00:17.974Z,99649.81
2023-05-06T09:03:20.919Z,99640.47
2023-05-06T09:06:25.147Z,99632.88
2023-05-06T09:09:27.858Z,99635.31
2023-05-06T09:12:30.886Z,99628.31
2023-05-06T09:15:44.677Z,99638.94
2023-05-06T09:18:47.854Z,99629.44
2023-05-06T09:21:52.021Z,99621.00
2023-05-06T09:24:57.064Z,99632.22
2023-05-06T09:28:07.298Z,99630.81
2023-05-06T09:31:14.135Z,99615.97
2023-05-06T09:34:18.157Z,99624.44
2023-05-06T09:37:21.420Z,99614.91
2023-05-06T09:40:24.716Z,99609.00
2023-05-06T09:43:28.187Z,99619.94
2023-05-06T09:46:31.460Z,99614.59
2023-05-06T09:49:35.029Z,99598.53
2023-05-06T09:52:38.003Z,99605.03
2023-05-06T09:55:42.047Z,99609.47
2023-05-06T09:58:46.093Z,99602.69
2023-05-06T10:01:49.497Z,99604.56
2023-05-06T10:04:55.985Z,99584.91
2023-05-06T10:07:59.597Z,99594.94
2023-05-06T10:11:02.657Z,99597.13
2023-05-06T10:14:06.690Z,99590.09
2023-05-06T10:17:11.689Z,99588.84
2023-05-06T10:20:16.466Z,99577.75
2023-05-06T10:23:22.073Z,99579.75
2023-05-06T10:26:27.965Z,99577.03
2023-05-06T10:29:35.084Z,99576.75
2023-05-06T10:32:42.655Z,99566.91
2023-05-06T10:35:57.100Z,99577.72
2023-05-06T10:39:01.737Z,99574.47
2023-05-06T10:42:06.970Z,99554.28
2023-05-06T10:45:11.016Z,99565.44
2023-05-06T10:48:14.362Z,99558.53
2023-05-06T10:51:17.169Z,99548.56
2023-05-06T10:54:20.495Z,99552.34
2023-05-06T10:57:27.173Z,99555.69
2023-05-06T11:00:34.953Z,99544.22
2023-05-06T11:03:37.758Z,99547.16
2023-05-06T11:06:43.315Z,99533.63
2023-05-06T11:10:01.184Z,99540.16
2023-05-06T11:13:28.584Z,99542.56
2023-05-06T11:16:48.695Z,99542.72
2023-05-06T11:20:22.176Z,99549.38
2023-05-06T11:23:52.248Z,99543.22
2023-05-06T11:26:57.006Z,99540.12
2023-05-06T11:29:59.685Z,99538.41
2023-05-06T11:33:05.909Z,99532.84
2023-05-06T11:36:15.404Z,99530.56
2023-05-06T11:39:18.549Z,99547.53
2023-05-06T11:42:28.541Z,99544.00
2023-05-06T11:45:44.467Z,99537.72
2023-05-06T11:48:47.433Z,99535.59
2023-05-06T11:51:50.707Z,99533.66
2023-05-06T11:54:54.042Z,99549.06
2023-05-06T11:57:56.951Z,99543.72
2023-05-06T12:01:01.626Z,99545.09
2023-05-06T12:04:05.086Z,99545.53
2023-05-06T12:07:09.787Z,99539.13
2023-05-06T12:10:14.278Z,99540.78
2023-05-06T12:13:18.586Z,99537.28
2023-05-06T12:16:22.902Z,99542.88
2023-05-06T12:19:26.696Z,99534.28
2023-05-06T12:22:30.190Z,99531.06
2023-05-06T12:25:36.862Z,99530.06
2023-05-06T12:28:42.657Z,99537.50
2023-05-06T12:31:49.263Z,99535.31
2023-05-06T12:34:52.431Z,99536.47
2023-05-06T12:37:56.324Z,99540.53
2023-05-06T12:40:59.601Z,99529.97
2023-05-06T12:44:02.553Z,99536.56
2023-05-06T12:47:26.209Z,99531.44
2023-05-06T12:50:41.321Z,99531.44
2023-05-06T12:53:44.637Z,99526.31
2023-05-06T12:56:47.342Z,99519.63
2023-05-06T12:59:50.752Z,99511.91
2023-05-06T13:02:53.630Z,99502.25
2023-05-06T13:05:56.635Z,99514.16
2023-05-06T13:08:59.532Z,99505.59
2023-05-06T13:12:04.582Z,99499.47
2023-05-06T13:15:08.656Z,99495.56
2023-05-06T13:18:11.683Z,99496.91
2023-05-06T13:21:14.414Z,99486.91
2023-05-06T13:24:17.371Z,99490.66
2023-05-06T13:27:20.137Z,99494.41
2023-05-06T13:30:23.097Z,99476.75
2023-05-06T13:33:26.071Z,99487.06
2023-05-06T13:36:29.188Z,99478.38
2023-05-06T13:39:32.080Z,99476.88
2023-05-06T13:42:36.297Z,99480.19
2023-05-06T13:45:38.976Z,99471.44
2023-05-06T13:48:42.077Z,99467.13
2023-05-06T13:51:44.758Z,99463.00
2023-05-06T13:54:47.793Z,99458.75
2023-05-06T13:57:50.384Z,99460.66
2023-05-06T14:00:53.302Z,99452.25
2023-05-06T14:03:56.250Z,99447.78
2023-05-06T14:06:59.312Z,99450.38
2023-05-06T14:10:02.548Z,99443.03
2023-05-06T14:13:07.165Z,99443.03
2023-05-06T14:16:10.431Z,99430.84
2023-05-06T14:19:13.238Z,99432.59
2023-05-06T14:22:16.254Z,99429.31
2023-05-06T14:25:18.932Z,99427.59
2023-05-06T14:28:22.067Z,99417.47
2023-05-06T14:31:24.911Z,99419.59
2023-05-06T14:34:28.166Z,99428.03
2023-05-06T14:37:30.858Z,99432.56
2023-05-06T14:40:35.975Z,99436.41
2023-05-06T14:43:38.583Z,99432.38
2023-05-06T14:46:41.554Z,99422.50
2023-05-06T14:49:44.250Z,99427.97
2023-05-06T14:52:48.251Z,99433.19
2023-05-06T14:55:50.917Z,99421.09
2023-05-06T14:58:54.161Z,99437.34
2023-05-06T15:01:57.051Z,99436.28
2023-05-06T15:05:07.449Z,99431.56
2023-05-06T15:08:10.311Z,99426.59
2023-05-06T15:11:13.569Z,99432.00
2023-05-06T15:14:16.288Z,99439.72
2023-05-06T15:17:19.299Z,99448.09
2023-05-06T15:20:21.942Z,99440.53
2023-05-06T15:23:24.925Z,99435.09
2023-05-06T15:26:27.549Z,99445.81
2023-05-06T15:29:30.729Z,99442.63
2023-05-06T15:32:33.429Z,99433.72
2023-05-06T15:35:36.465Z,99439.75
2023-05-06T15:39:00.889Z,99428.53
2023-05-06T15:42:04.514Z,99445.50
2023-05-06T15:45:07.754Z,99446.44
2023-05-06T15:48:10.886Z,99442.75
2023-05-06T15:51:13.632Z,99448.84
2023-05-06T15:54:18.382Z,99426.03
2023-05-06T15:57:21.145Z,99446.25
2023-05-06T16:00:24.171Z,99448.69
2023-05-06T16:03:27.256Z,99436.19
2023-05-06T16:06:30.195Z,99448.84
2023-05-06T16:09:33.127Z,99453.59
2023-05-06T16:12:35.916Z,99451.19
2023-05-06T16:15:38.872Z,99440.28
2023-05-06T16:18:41.720Z,99450.38
2023-05-06T16:21:44.687Z,99447.25
2023-05-06T16:24:47.392Z,99452.00
2023-05-06T16:27:50.493Z,99440.59
2023-05-06T16:30:53.205Z,99444.84
2023-05-06T16:33:56.523Z,99448.09
2023-05-06T16:37:00.603Z,99440.53
2023-05-06T16:40:04.483Z,99447.56
2023-05-06T16:43:07.154Z,99448.41
2023-05-06T16:46:10.128Z,99437.66
2023-05-06T16:49:12.835Z,99438.50
2023-05-06T16:52:15.811Z,99443.91
2023-05-06T16:55:18.862Z,99447.47
2023-05-06T16:58:22.208Z,99442.25
2023-05-06T17:01:24.994Z,99431.19
2023-05-06T17:04:27.983Z,99425.47
2023-05-06T17:07:30.613Z,99440.97
2023-05-06T17:10:33.604Z,99432.78
2023-05-06T17:13:36.720Z,99436.37
2023-05-06T17:16:40.480Z,99415.63
2023-05-06T17:19:43.162Z,99426.19
2023-05-06T17:22:46.270Z,99420.66
2023-05-06T17:25:49.123Z,99419.66
2023-05-06T17:28:52.109Z,99405.16
2023-05-06T17:31:54.781Z,99402.34
2023-05-06T17:34:58.165Z,99407.06
2023-05-06T17:38:00.834Z,99405.72
2023-05-06T17:41:03.835Z,99414.63
2023-05-06T17:44:07.074Z,99418.06
2023-05-06T17:47:10.720Z,99404.94
2023-05-06T17:50:13.577Z,99417.81
2023-05-06T17:53:16.578Z,99427.81
2023-05-06T17:56:20.419Z,99426.88
2023-05-06T17:59:25.260Z,99443.88
2023-05-06T18:02:28.822Z,99444.41
2023-05-06T18:05:31.771Z,99451.50
2023-05-06T18:08:34.364Z,99445.47
2023-05-06T18:11:41.444Z,99444.03
2023-05-06T18:14:44.252Z,99450.59
2023-05-06T18:17:47.321Z,99443.31
2023-05-06T18:20:50.104Z,99462.66
2023-05-06T18:23:56.055Z,99468.97
2023-05-06T18:27:05.188Z,99469.13
2023-05-06T18:30:08.954Z,99474.25
2023-05-06T18:33:11.800Z,99480.53
2023-05-06T18:36:14.736Z,99496.44
2023-05-06T18:39:17.713Z,99495.09
2023-05-06T18:42:23.569Z,99514.88
2023-05-06T18:45:26.384Z,99507.09
2023-05-06T18:48:30.962Z,99520.22
2023-05-06T18:51:34.118Z,99523.75
2023-05-06T18:54:37.026Z,99523.44
2023-05-06T18:57:39.840Z,99529.13
2023-05-06T19:00:42.849Z,99525.22
2023-05-06T19:03:47.290Z,99540.91
2023-05-06T19:06:51.661Z,99542.63
2023-05-06T19:09:54.999Z,99540.53
2023-05-06T19:12:58.138Z,99532.12
2023-05-06T19:16:00.862Z,99545.91
2023-05-06T19:19:07.110Z,99548.41
2023-05-06T19:22:09.724Z,99554.22
2023-05-06T19:25:12.909Z,99552.37
2023-05-06T19:28:15.719Z,99557.88
2023-05-06T19:31:18.788Z,99564.50
2023-05-06T19:34:21.751Z,99568.91
2023-05-06T19:37:25.163Z,99564.25
2023-05-06T19:40:29.003Z,99558.75
2023-05-06T19:43:32.017Z,99566.19
2023-05-06T19:46:34.740Z,99568.69
2023-05-06T19:49:37.810Z,99573.59
2023-05-06T19:52:40.822Z,99558.28
2023-05-06T19:55:43.884Z,99565.66
2023-05-06T19:58:46.595Z,99566.75
2023-05-06T20:01:50.213Z,99563.44
2023-05-06T20:04:53.238Z,99575.59
2023-05-06T20:07:55.853Z,99580.53
2023-05-06T20:10:58.930Z,99578.00
2023-05-06T20:14:01.600Z,99587.47
2023-05-06T20:17:04.584Z,99573.69
2023-05-06T20:20:09.977Z,99588.25
2023-05-06T20:23:13.396Z,99579.19
2023-05-06T20:26:16.099Z,99582.19
2023-05-06T20:29:19.234Z,99573.59
2023-05-06T20:32:21.940Z,99568.81
2023-05-06T20:35:26.198Z,99561.53
2023-05-06T20:38:30.868Z,99573.06
2023-05-06T20:41:33.923Z,99575.81
2023-05-06T20:44:36.595Z,99577.44
2023-05-06T20:47:39.684Z,99562.22
2023-05-06T20:50:42.582Z,99570.66
2023-05-06T20:53:48.835Z,99566.84
2023-05-06T20:56:51.457Z,99563.00
2023-05-06T20:59:56.127Z,99554.75
2023-05-06T21:02:59.070Z,99563.97
2023-05-06T21:06:02.150Z,99555.31
2023-05-06T21:09:04.925Z,99550.69
2023-05-06T21:12:08.115Z,99549.00
2023-05-06T21:15:11.407Z,99556.19
2023-05-06T21:18:16.593Z,99549.81
2023-05-06T21:21:19.435Z,99548.66
2023-05-06T21:24:22.670Z,99550.22
2023-05-06T21:27:25.432Z,99550.84
2023-05-06T21:30:29.323Z,99551.81
2023-05-06T21:33:31.984Z,99551.37
2023-05-06T21:36:37.886Z,99563.84
2023-05-06T21:39:40.820Z,99557.84
2023-05-06T21:42:43.942Z,99564.19
2023-05-06T21:45:46.763Z,99553.59
2023-05-06T21:48:49.877Z,99552.53
2023-05-06T21:51:52.896Z,99563.28
2023-05-06T21:54:56.460Z,99558.13
2023-05-06T21:57:59.230Z,99558.44
2023-05-06T22:01:02.239Z,99563.12
2023-05-06T22:04:11.472Z,99558.78
2023-05-06T22:07:14.355Z,99562.66
2023-05-06T22:10:17.423Z,99572.00
2023-05-06T22:13:20.225Z,99557.50
2023-05-06T22:16:23.595Z,99567.09
2023-05-06T22:19:26.962Z,99563.56
2023-05-06T22:22:30.170Z,99560.59
2023-05-06T22:25:32.993Z,99577.34
2023-05-06T22:28:35.983Z,99575.16
2023-05-06T22:31:39.176Z,99566.16
2023-05-06T22:34:42.262Z,99579.31
2023-05-06T22:37:45.604Z,99587.03
2023-05-06T22:40:48.654Z,99568.91
2023-05-06T22:43:51.802Z,99582.59
2023-05-06T22:46:54.982Z,99576.84
2023-05-06T22:49:57.703Z,99571.09
2023-05-06T22:53:10.271Z,99573.03
2023-05-06T22:56:19.057Z,99558.75
2023-05-06T22:59:22.120Z,99547.00
2023-05-06T23:02:24.964Z,99555.53
2023-05-06T23:05:27.950Z,99564.28
2023-05-06T23:08:31.161Z,99550.31
2023-05-06T23:11:34.103Z,99549.19
2023-05-06T23:14:36.828Z,99544.84
2023-05-06T23:17:40.482Z,99529.78
2023-05-06T23:20:43.347Z,99530.06
2023-05-06T23:23:46.417Z,99533.94
2023-05-06T23:26:49.128Z,99545.69
2023-05-06T23:29:52.109Z,99544.34
2023-05-06T23:32:54.791Z,99543.78
2023-05-06T23:36:00.813Z,99535.84
2023-05-06T23:39:04.164Z,99548.16
2023-05-06T23:42:07.274Z,99541.88
2023-05-06T23:45:10.170Z,99539.41
2023-05-06T23:48:13.306Z,99531.75
2023-05-06T23:51:16.334Z,99539.38
2023-05-06T23:54:19.270Z,99531.44
2023-05-06T23:57:21.988Z,99534.97
